sensor_id;sensor_type;location;lat;lon;timestamp;temperature;humidity
10802;DHT22;5453;50.852;7.102;2022-12-07T00:00:02;5.90;99.90
10802;DHT22;5453;50.852;7.102;2022-12-07T00:02:35;5.90;99.90
10802;DHT22;5453;50.852;7.102;2022-12-07T00:05:07;5.90;99.90
10802;DHT22;5453;50.852;7.102;2022-12-07T00:07:41;5.90;99.90
10802;DHT22;5453;50.852;7.102;2022-12-07T00:10:13;5.90;99.90
10802;DHT22;5453;50.852;7.102;2022-12-07T00:12:45;6.00;99.90
10802;DHT22;5453;50.852;7.102;2022-12-07T00:15:17;6.00;99.90
10802;DHT22;5453;50.852;7.102;2022-12-07T00:17:49;5.90;99.90
10802;DHT22;5453;50.852;7.102;2022-12-07T00:20:21;5.90;99.90
10802;DHT22;5453;50.852;7.102;2022-12-07T00:22:55;6.00;99.90
10802;DHT22;5453;50.852;7.102;2022-12-07T00:25:27;6.00;99.90
10802;DHT22;5453;50.852;7.102;2022-12-07T00:27:59;6.00;99.90
10802;DHT22;5453;50.852;7.102;2022-12-07T00:30:31;6.00;99.90
10802;DHT22;5453;50.852;7.102;2022-12-07T00:33:04;6.00;99.90
10802;DHT22;5453;50.852;7.102;2022-12-07T00:35:36;6.00;99.90
10802;DHT22;5453;50.852;7.102;2022-12-07T00:38:09;6.00;99.90
10802;DHT22;5453;50.852;7.102;2022-12-07T00:40:41;6.00;99.90
10802;DHT22;5453;50.852;7.102;2022-12-07T00:43:13;6.00;99.90
10802;DHT22;5453;50.852;7.102;2022-12-07T00:45:45;6.00;99.90
10802;DHT22;5453;50.852;7.102;2022-12-07T00:48:17;6.00;99.90
10802;DHT22;5453;50.852;7.102;2022-12-07T00:50:49;6.00;99.90
10802;DHT22;5453;50.852;7.102;2022-12-07T00:53:23;6.00;99.90
10802;DHT22;5453;50.852;7.102;2022-12-07T00:55:55;6.00;99.90
10802;DHT22;5453;50.852;7.102;2022-12-07T00:58:28;6.00;99.90
10802;DHT22;5453;50.852;7.102;2022-12-07T01:01:00;6.00;99.90
10802;DHT22;5453;50.852;7.102;2022-12-07T01:03:33;6.00;99.90
10802;DHT22;5453;50.852;7.102;2022-12-07T01:06:06;6.00;99.90
10802;DHT22;5453;50.852;7.102;2022-12-07T01:08:39;6.00;99.90
10802;DHT22;5453;50.852;7.102;2022-12-07T01:11:14;6.00;99.90
10802;DHT22;5453;50.852;7.102;2022-12-07T01:13:49;6.00;99.90
10802;DHT22;5453;50.852;7.102;2022-12-07T01:16:24;6.00;99.90
10802;DHT22;5453;50.852;7.102;2022-12-07T01:18:58;6.00;99.90
10802;DHT22;5453;50.852;7.102;2022-12-07T01:21:32;6.10;99.90
10802;DHT22;5453;50.852;7.102;2022-12-07T01:24:10;6.10;99.90
10802;DHT22;5453;50.852;7.102;2022-12-07T01:26:42;6.10;99.90
10802;DHT22;5453;50.852;7.102;2022-12-07T01:29:14;6.10;99.90
10802;DHT22;5453;50.852;7.102;2022-12-07T01:31:48;6.00;99.90
10802;DHT22;5453;50.852;7.102;2022-12-07T01:34:22;6.10;99.90
10802;DHT22;5453;50.852;7.102;2022-12-07T01:36:54;6.00;99.90
10802;DHT22;5453;50.852;7.102;2022-12-07T01:39:27;6.00;99.90
10802;DHT22;5453;50.852;7.102;2022-12-07T01:42:00;6.00;99.90
10802;DHT22;5453;50.852;7.102;2022-12-07T01:44:32;6.00;99.90
10802;DHT22;5453;50.852;7.102;2022-12-07T01:47:04;6.00;99.90
10802;DHT22;5453;50.852;7.102;2022-12-07T01:49:39;6.00;99.90
10802;DHT22;5453;50.852;7.102;2022-12-07T01:52:16;6.00;99.90
10802;DHT22;5453;50.852;7.102;2022-12-07T01:54:53;6.00;99.90
10802;DHT22;5453;50.852;7.102;2022-12-07T01:57:28;6.00;99.90
10802;DHT22;5453;50.852;7.102;2022-12-07T02:00:03;6.00;99.90
10802;DHT22;5453;50.852;7.102;2022-12-07T02:02:48;6.00;99.90
10802;DHT22;5453;50.852;7.102;2022-12-07T02:05:24;6.00;99.90
10802;DHT22;5453;50.852;7.102;2022-12-07T02:07:57;6.00;99.90
10802;DHT22;5453;50.852;7.102;2022-12-07T02:10:32;5.90;99.90
10802;DHT22;5453;50.852;7.102;2022-12-07T02:13:08;6.00;99.90
10802;DHT22;5453;50.852;7.102;2022-12-07T02:15:51;5.90;99.90
10802;DHT22;5453;50.852;7.102;2022-12-07T02:18:42;6.00;99.90
10802;DHT22;5453;50.852;7.102;2022-12-07T02:21:29;6.00;99.90
10802;DHT22;5453;50.852;7.102;2022-12-07T02:24:29;6.00;99.90
10802;DHT22;5453;50.852;7.102;2022-12-07T02:27:36;6.00;99.90
10802;DHT22;5453;50.852;7.102;2022-12-07T02:30:12;6.00;99.90
10802;DHT22;5453;50.852;7.102;2022-12-07T02:32:51;6.00;99.90
10802;DHT22;5453;50.852;7.102;2022-12-07T02:35:28;6.00;99.90
10802;DHT22;5453;50.852;7.102;2022-12-07T02:38:08;6.00;99.90
10802;DHT22;5453;50.852;7.102;2022-12-07T02:40:50;6.00;99.90
10802;DHT22;5453;50.852;7.102;2022-12-07T02:43:26;6.00;99.90
10802;DHT22;5453;50.852;7.102;2022-12-07T02:46:03;6.00;99.90
10802;DHT22;5453;50.852;7.102;2022-12-07T02:48:38;6.00;99.90
10802;DHT22;5453;50.852;7.102;2022-12-07T02:51:12;6.00;99.90
10802;DHT22;5453;50.852;7.102;2022-12-07T02:53:44;6.00;99.90
10802;DHT22;5453;50.852;7.102;2022-12-07T02:56:24;5.90;99.90
10802;DHT22;5453;50.852;7.102;2022-12-07T02:59:10;5.90;99.90
10802;DHT22;5453;50.852;7.102;2022-12-07T03:01:56;6.00;99.90
10802;DHT22;5453;50.852;7.102;2022-12-07T03:04:40;5.90;99.90
10802;DHT22;5453;50.852;7.102;2022-12-07T03:07:24;5.90;99.90
10802;DHT22;5453;50.852;7.102;2022-12-07T03:10:06;5.90;99.90
10802;DHT22;5453;50.852;7.102;2022-12-07T03:12:46;5.90;99.90
10802;DHT22;5453;50.852;7.102;2022-12-07T03:15:29;5.90;99.90
10802;DHT22;5453;50.852;7.102;2022-12-07T03:18:05;5.90;99.90
10802;DHT22;5453;50.852;7.102;2022-12-07T03:20:40;5.90;99.90
10802;DHT22;5453;50.852;7.102;2022-12-07T03:23:14;5.90;99.90
10802;DHT22;5453;50.852;7.102;2022-12-07T03:25:50;5.90;99.90
10802;DHT22;5453;50.852;7.102;2022-12-07T03:28:30;5.90;99.90
10802;DHT22;5453;50.852;7.102;2022-12-07T03:31:09;5.90;99.90
10802;DHT22;5453;50.852;7.102;2022-12-07T03:33:51;5.90;99.90
10802;DHT22;5453;50.852;7.102;2022-12-07T03:36:31;6.00;99.90
10802;DHT22;5453;50.852;7.102;2022-12-07T03:39:14;6.00;99.90
10802;DHT22;5453;50.852;7.102;2022-12-07T03:41:50;6.00;99.90
10802;DHT22;5453;50.852;7.102;2022-12-07T03:44:23;6.00;99.90
10802;DHT22;5453;50.852;7.102;2022-12-07T03:47:01;6.00;99.90
10802;DHT22;5453;50.852;7.102;2022-12-07T03:49:42;6.00;99.90
10802;DHT22;5453;50.852;7.102;2022-12-07T03:52:20;6.00;99.90
10802;DHT22;5453;50.852;7.102;2022-12-07T03:54:58;6.00;99.90
10802;DHT22;5453;50.852;7.102;2022-12-07T03:57:33;5.90;99.90
10802;DHT22;5453;50.852;7.102;2022-12-07T04:00:08;6.00;99.90
10802;DHT22;5453;50.852;7.102;2022-12-07T04:02:44;5.90;99.90
10802;DHT22;5453;50.852;7.102;2022-12-07T04:05:18;6.00;99.90
10802;DHT22;5453;50.852;7.102;2022-12-07T04:07:50;6.00;99.90
10802;DHT22;5453;50.852;7.102;2022-12-07T04:10:22;6.00;99.90
10802;DHT22;5453;50.852;7.102;2022-12-07T04:12:55;6.00;99.90
10802;DHT22;5453;50.852;7.102;2022-12-07T04:15:27;6.00;99.90
10802;DHT22;5453;50.852;7.102;2022-12-07T04:17:59;6.00;99.90
10802;DHT22;5453;50.852;7.102;2022-12-07T04:20:33;6.00;99.90
10802;DHT22;5453;50.852;7.102;2022-12-07T04:23:05;6.00;99.90
10802;DHT22;5453;50.852;7.102;2022-12-07T04:25:37;6.00;99.90
10802;DHT22;5453;50.852;7.102;2022-12-07T04:28:09;6.00;99.90
10802;DHT22;5453;50.852;7.102;2022-12-07T04:30:41;6.00;99.90
10802;DHT22;5453;50.852;7.102;2022-12-07T04:33:13;6.00;99.90
10802;DHT22;5453;50.852;7.102;2022-12-07T04:35:46;6.10;99.90
10802;DHT22;5453;50.852;7.102;2022-12-07T04:38:18;6.10;99.90
10802;DHT22;5453;50.852;7.102;2022-12-07T04:40:50;6.10;99.90
10802;DHT22;5453;50.852;7.102;2022-12-07T04:43:23;6.10;99.90
10802;DHT22;5453;50.852;7.102;2022-12-07T04:45:55;6.10;99.90
10802;DHT22;5453;50.852;7.102;2022-12-07T04:48:27;6.10;99.90
10802;DHT22;5453;50.852;7.102;2022-12-07T04:51:02;6.10;99.90
10802;DHT22;5453;50.852;7.102;2022-12-07T04:53:35;6.00;99.90
10802;DHT22;5453;50.852;7.102;2022-12-07T04:56:07;6.10;99.90
10802;DHT22;5453;50.852;7.102;2022-12-07T04:58:39;6.00;99.90
10802;DHT22;5453;50.852;7.102;2022-12-07T05:01:12;6.00;99.90
10802;DHT22;5453;50.852;7.102;2022-12-07T05:03:44;6.00;99.90
10802;DHT22;5453;50.852;7.102;2022-12-07T05:06:18;6.00;99.90
10802;DHT22;5453;50.852;7.102;2022-12-07T05:08:50;6.00;99.90
10802;DHT22;5453;50.852;7.102;2022-12-07T05:11:23;6.00;99.90
10802;DHT22;5453;50.852;7.102;2022-12-07T05:14:12;6.00;99.90
10802;DHT22;5453;50.852;7.102;2022-12-07T05:16:46;6.00;99.90
10802;DHT22;5453;50.852;7.102;2022-12-07T05:19:19;6.00;99.90
10802;DHT22;5453;50.852;7.102;2022-12-07T05:21:53;6.00;99.90
10802;DHT22;5453;50.852;7.102;2022-12-07T05:24:25;6.00;99.90
10802;DHT22;5453;50.852;7.102;2022-12-07T05:26:57;6.00;99.90
10802;DHT22;5453;50.852;7.102;2022-12-07T05:29:30;6.00;99.90
10802;DHT22;5453;50.852;7.102;2022-12-07T05:32:02;6.00;99.90
10802;DHT22;5453;50.852;7.102;2022-12-07T05:34:34;6.00;99.90
10802;DHT22;5453;50.852;7.102;2022-12-07T05:37:07;6.00;99.90
10802;DHT22;5453;50.852;7.102;2022-12-07T05:39:39;6.00;99.90
10802;DHT22;5453;50.852;7.102;2022-12-07T05:42:13;5.90;99.90
10802;DHT22;5453;50.852;7.102;2022-12-07T05:44:46;6.00;99.90
10802;DHT22;5453;50.852;7.102;2022-12-07T05:47:19;6.00;99.90
10802;DHT22;5453;50.852;7.102;2022-12-07T05:49:51;6.00;99.90
10802;DHT22;5453;50.852;7.102;2022-12-07T05:52:24;6.00;99.90
10802;DHT22;5453;50.852;7.102;2022-12-07T05:54:56;5.90;99.90
10802;DHT22;5453;50.852;7.102;2022-12-07T05:57:28;5.90;99.90
10802;DHT22;5453;50.852;7.102;2022-12-07T06:00:01;5.90;99.90
10802;DHT22;5453;50.852;7.102;2022-12-07T06:02:43;5.90;99.90
10802;DHT22;5453;50.852;7.102;2022-12-07T06:05:15;5.90;99.90
10802;DHT22;5453;50.852;7.102;2022-12-07T06:07:48;5.90;99.90
10802;DHT22;5453;50.852;7.102;2022-12-07T06:10:20;5.90;99.90
10802;DHT22;5453;50.852;7.102;2022-12-07T06:12:53;5.90;99.90
10802;DHT22;5453;50.852;7.102;2022-12-07T06:15:24;5.90;99.90
10802;DHT22;5453;50.852;7.102;2022-12-07T06:17:57;5.90;99.90
10802;DHT22;5453;50.852;7.102;2022-12-07T06:20:30;5.80;99.90
10802;DHT22;5453;50.852;7.102;2022-12-07T06:23:04;5.80;99.90
10802;DHT22;5453;50.852;7.102;2022-12-07T06:25:37;5.80;99.90
10802;DHT22;5453;50.852;7.102;2022-12-07T06:28:09;5.80;99.90
10802;DHT22;5453;50.852;7.102;2022-12-07T06:30:41;5.80;99.90
10802;DHT22;5453;50.852;7.102;2022-12-07T06:33:13;5.70;99.90
10802;DHT22;5453;50.852;7.102;2022-12-07T06:35:46;5.70;99.90
10802;DHT22;5453;50.852;7.102;2022-12-07T06:38:20;5.70;99.90
10802;DHT22;5453;50.852;7.102;2022-12-07T06:40:52;5.70;99.90
10802;DHT22;5453;50.852;7.102;2022-12-07T06:43:25;5.60;99.90
10802;DHT22;5453;50.852;7.102;2022-12-07T06:45:58;5.60;99.90
10802;DHT22;5453;50.852;7.102;2022-12-07T06:48:30;5.60;99.90
10802;DHT22;5453;50.852;7.102;2022-12-07T06:51:03;5.60;99.90
10802;DHT22;5453;50.852;7.102;2022-12-07T06:53:37;5.60;99.90
10802;DHT22;5453;50.852;7.102;2022-12-07T06:56:10;5.60;99.90
10802;DHT22;5453;50.852;7.102;2022-12-07T06:58:42;5.60;99.90
10802;DHT22;5453;50.852;7.102;2022-12-07T07:01:18;5.60;99.90
10802;DHT22;5453;50.852;7.102;2022-12-07T07:03:51;5.60;99.90
10802;DHT22;5453;50.852;7.102;2022-12-07T07:06:23;5.60;99.90
10802;DHT22;5453;50.852;7.102;2022-12-07T07:08:57;5.60;99.90
10802;DHT22;5453;50.852;7.102;2022-12-07T07:11:29;5.60;99.90
10802;DHT22;5453;50.852;7.102;2022-12-07T07:14:01;5.50;99.90
10802;DHT22;5453;50.852;7.102;2022-12-07T07:16:33;5.60;99.90
10802;DHT22;5453;50.852;7.102;2022-12-07T07:19:05;5.50;99.90
10802;DHT22;5453;50.852;7.102;2022-12-07T07:21:37;5.60;99.90
10802;DHT22;5453;50.852;7.102;2022-12-07T07:24:11;5.60;99.90
10802;DHT22;5453;50.852;7.102;2022-12-07T07:26:43;5.60;99.90
10802;DHT22;5453;50.852;7.102;2022-12-07T07:29:15;5.80;99.90
10802;DHT22;5453;50.852;7.102;2022-12-07T07:31:47;5.80;99.90
10802;DHT22;5453;50.852;7.102;2022-12-07T07:34:19;5.90;99.90
10802;DHT22;5453;50.852;7.102;2022-12-07T07:36:51;5.80;99.90
10802;DHT22;5453;50.852;7.102;2022-12-07T07:39:24;6.00;99.90
10802;DHT22;5453;50.852;7.102;2022-12-07T07:41:56;6.00;99.90
10802;DHT22;5453;50.852;7.102;2022-12-07T07:44:31;6.00;99.90
10802;DHT22;5453;50.852;7.102;2022-12-07T07:47:03;5.90;99.90
10802;DHT22;5453;50.852;7.102;2022-12-07T07:49:35;6.00;99.90
10802;DHT22;5453;50.852;7.102;2022-12-07T07:52:07;6.00;99.90
10802;DHT22;5453;50.852;7.102;2022-12-07T07:54:41;6.00;99.90
10802;DHT22;5453;50.852;7.102;2022-12-07T07:57:13;5.90;99.90
10802;DHT22;5453;50.852;7.102;2022-12-07T07:59:45;5.90;99.90
10802;DHT22;5453;50.852;7.102;2022-12-07T08:02:19;5.90;99.90
10802;DHT22;5453;50.852;7.102;2022-12-07T08:04:52;5.90;99.90
10802;DHT22;5453;50.852;7.102;2022-12-07T08:07:24;5.90;99.90
10802;DHT22;5453;50.852;7.102;2022-12-07T08:10:04;5.90;99.90
10802;DHT22;5453;50.852;7.102;2022-12-07T08:12:39;5.90;99.90
10802;DHT22;5453;50.852;7.102;2022-12-07T08:15:32;5.90;99.90
10802;DHT22;5453;50.852;7.102;2022-12-07T08:18:04;5.90;99.90
10802;DHT22;5453;50.852;7.102;2022-12-07T08:20:38;5.90;99.90
10802;DHT22;5453;50.852;7.102;2022-12-07T08:23:11;5.90;99.90
10802;DHT22;5453;50.852;7.102;2022-12-07T08:25:44;6.00;99.90
10802;DHT22;5453;50.852;7.102;2022-12-07T08:28:17;6.00;99.90
10802;DHT22;5453;50.852;7.102;2022-12-07T08:30:49;6.10;99.90
10802;DHT22;5453;50.852;7.102;2022-12-07T08:33:21;6.10;99.90
10802;DHT22;5453;50.852;7.102;2022-12-07T08:35:53;6.10;99.90
10802;DHT22;5453;50.852;7.102;2022-12-07T08:38:25;6.20;99.90
10802;DHT22;5453;50.852;7.102;2022-12-07T08:40:59;6.20;99.90
10802;DHT22;5453;50.852;7.102;2022-12-07T08:43:32;6.20;99.90
10802;DHT22;5453;50.852;7.102;2022-12-07T08:46:08;6.20;99.90
10802;DHT22;5453;50.852;7.102;2022-12-07T08:48:46;6.20;99.90
10802;DHT22;5453;50.852;7.102;2022-12-07T08:51:21;6.20;99.90
10802;DHT22;5453;50.852;7.102;2022-12-07T08:53:54;6.20;99.90
10802;DHT22;5453;50.852;7.102;2022-12-07T08:56:29;6.20;99.90
10802;DHT22;5453;50.852;7.102;2022-12-07T08:59:01;6.20;99.90
10802;DHT22;5453;50.852;7.102;2022-12-07T09:01:33;6.20;99.90
10802;DHT22;5453;50.852;7.102;2022-12-07T09:04:05;6.20;99.90
10802;DHT22;5453;50.852;7.102;2022-12-07T09:06:38;6.20;99.90
10802;DHT22;5453;50.852;7.102;2022-12-07T09:09:12;6.30;99.90
10802;DHT22;5453;50.852;7.102;2022-12-07T09:11:46;6.30;99.90
10802;DHT22;5453;50.852;7.102;2022-12-07T09:14:19;6.30;99.90
10802;DHT22;5453;50.852;7.102;2022-12-07T09:16:51;6.40;99.90
10802;DHT22;5453;50.852;7.102;2022-12-07T09:19:23;6.40;99.90
10802;DHT22;5453;50.852;7.102;2022-12-07T09:21:55;6.40;99.90
10802;DHT22;5453;50.852;7.102;2022-12-07T09:24:27;6.40;99.90
10802;DHT22;5453;50.852;7.102;2022-12-07T09:27:00;6.40;99.90
10802;DHT22;5453;50.852;7.102;2022-12-07T09:29:32;6.50;99.90
10802;DHT22;5453;50.852;7.102;2022-12-07T09:32:05;6.50;99.90
10802;DHT22;5453;50.852;7.102;2022-12-07T09:34:37;6.60;99.90
10802;DHT22;5453;50.852;7.102;2022-12-07T09:37:09;6.60;99.90
10802;DHT22;5453;50.852;7.102;2022-12-07T09:39:41;6.70;99.90
10802;DHT22;5453;50.852;7.102;2022-12-07T09:42:26;6.70;99.90
10802;DHT22;5453;50.852;7.102;2022-12-07T09:45:01;6.80;99.90
10802;DHT22;5453;50.852;7.102;2022-12-07T09:47:34;6.80;99.90
10802;DHT22;5453;50.852;7.102;2022-12-07T09:50:13;6.80;99.90
10802;DHT22;5453;50.852;7.102;2022-12-07T09:52:47;6.80;99.90
10802;DHT22;5453;50.852;7.102;2022-12-07T09:55:23;6.80;99.90
10802;DHT22;5453;50.852;7.102;2022-12-07T09:57:59;6.70;99.90
10802;DHT22;5453;50.852;7.102;2022-12-07T10:00:31;6.70;99.90
10802;DHT22;5453;50.852;7.102;2022-12-07T10:03:03;6.80;99.90
10802;DHT22;5453;50.852;7.102;2022-12-07T10:05:38;6.70;99.90
10802;DHT22;5453;50.852;7.102;2022-12-07T10:08:12;6.70;99.90
10802;DHT22;5453;50.852;7.102;2022-12-07T10:10:50;6.70;99.90
10802;DHT22;5453;50.852;7.102;2022-12-07T10:13:36;6.70;99.90
10802;DHT22;5453;50.852;7.102;2022-12-07T10:16:32;6.70;99.90
10802;DHT22;5453;50.852;7.102;2022-12-07T10:19:22;6.80;99.90
10802;DHT22;5453;50.852;7.102;2022-12-07T10:22:09;6.80;99.90
10802;DHT22;5453;50.852;7.102;2022-12-07T10:24:46;6.90;99.90
10802;DHT22;5453;50.852;7.102;2022-12-07T10:27:20;7.00;99.90
10802;DHT22;5453;50.852;7.102;2022-12-07T10:29:55;7.00;99.90
10802;DHT22;5453;50.852;7.102;2022-12-07T10:32:32;7.00;99.90
10802;DHT22;5453;50.852;7.102;2022-12-07T10:35:21;7.10;99.90
10802;DHT22;5453;50.852;7.102;2022-12-07T10:37:57;7.10;99.90
10802;DHT22;5453;50.852;7.102;2022-12-07T10:40:31;7.20;99.90
10802;DHT22;5453;50.852;7.102;2022-12-07T10:43:18;7.20;99.90
10802;DHT22;5453;50.852;7.102;2022-12-07T10:46:13;7.20;99.90
10802;DHT22;5453;50.852;7.102;2022-12-07T10:49:04;7.60;99.90
10802;DHT22;5453;50.852;7.102;2022-12-07T10:51:47;7.60;99.90
10802;DHT22;5453;50.852;7.102;2022-12-07T10:54:30;7.50;99.90
10802;DHT22;5453;50.852;7.102;2022-12-07T10:57:27;7.40;99.90
10802;DHT22;5453;50.852;7.102;2022-12-07T11:00:18;7.30;99.90
10802;DHT22;5453;50.852;7.102;2022-12-07T11:03:21;7.20;99.90
10802;DHT22;5453;50.852;7.102;2022-12-07T11:06:05;7.20;99.90
10802;DHT22;5453;50.852;7.102;2022-12-07T11:08:52;7.20;99.90
10802;DHT22;5453;50.852;7.102;2022-12-07T11:11:34;7.10;99.90
10802;DHT22;5453;50.852;7.102;2022-12-07T11:14:17;7.10;99.90
10802;DHT22;5453;50.852;7.102;2022-12-07T11:16:56;7.10;99.90
10802;DHT22;5453;50.852;7.102;2022-12-07T11:19:42;7.10;99.90
10802;DHT22;5453;50.852;7.102;2022-12-07T11:22:26;7.10;99.90
10802;DHT22;5453;50.852;7.102;2022-12-07T11:25:16;7.20;99.90
10802;DHT22;5453;50.852;7.102;2022-12-07T11:28:03;7.30;99.90
10802;DHT22;5453;50.852;7.102;2022-12-07T11:30:47;7.30;99.90
10802;DHT22;5453;50.852;7.102;2022-12-07T11:33:29;7.30;99.90
10802;DHT22;5453;50.852;7.102;2022-12-07T11:36:17;7.20;99.90
10802;DHT22;5453;50.852;7.102;2022-12-07T11:39:04;7.30;99.90
10802;DHT22;5453;50.852;7.102;2022-12-07T11:41:43;7.30;99.90
10802;DHT22;5453;50.852;7.102;2022-12-07T11:44:26;7.30;99.90
10802;DHT22;5453;50.852;7.102;2022-12-07T11:47:06;7.20;99.90
10802;DHT22;5453;50.852;7.102;2022-12-07T11:49:47;7.30;99.90
10802;DHT22;5453;50.852;7.102;2022-12-07T11:52:27;7.30;99.90
10802;DHT22;5453;50.852;7.102;2022-12-07T11:55:21;7.30;99.90
10802;DHT22;5453;50.852;7.102;2022-12-07T11:58:01;7.30;99.90
10802;DHT22;5453;50.852;7.102;2022-12-07T12:00:35;7.50;99.90
10802;DHT22;5453;50.852;7.102;2022-12-07T12:03:12;7.50;99.90
10802;DHT22;5453;50.852;7.102;2022-12-07T12:05:47;7.50;99.90
10802;DHT22;5453;50.852;7.102;2022-12-07T12:08:26;7.40;99.90
10802;DHT22;5453;50.852;7.102;2022-12-07T12:11:06;7.30;99.90
10802;DHT22;5453;50.852;7.102;2022-12-07T12:14:01;7.20;99.90
10802;DHT22;5453;50.852;7.102;2022-12-07T12:16:59;7.20;99.90
10802;DHT22;5453;50.852;7.102;2022-12-07T12:19:42;7.10;99.90
10802;DHT22;5453;50.852;7.102;2022-12-07T12:22:17;7.20;99.90
10802;DHT22;5453;50.852;7.102;2022-12-07T12:24:53;7.30;99.90
10802;DHT22;5453;50.852;7.102;2022-12-07T12:27:29;7.20;99.90
10802;DHT22;5453;50.852;7.102;2022-12-07T12:30:06;7.20;99.90
10802;DHT22;5453;50.852;7.102;2022-12-07T12:32:40;7.10;99.90
10802;DHT22;5453;50.852;7.102;2022-12-07T12:35:29;7.00;99.90
10802;DHT22;5453;50.852;7.102;2022-12-07T12:38:27;7.00;99.90
10802;DHT22;5453;50.852;7.102;2022-12-07T12:41:05;6.90;99.90
10802;DHT22;5453;50.852;7.102;2022-12-07T12:43:49;6.90;99.90
10802;DHT22;5453;50.852;7.102;2022-12-07T12:46:51;6.90;99.90
10802;DHT22;5453;50.852;7.102;2022-12-07T12:49:42;6.90;99.90
10802;DHT22;5453;50.852;7.102;2022-12-07T12:56:17;6.80;99.90
10802;DHT22;5453;50.852;7.102;2022-12-07T12:59:23;6.80;99.90
10802;DHT22;5453;50.852;7.102;2022-12-07T13:02:16;6.90;99.90
10802;DHT22;5453;50.852;7.102;2022-12-07T13:04:54;7.50;99.90
10802;DHT22;5453;50.852;7.102;2022-12-07T13:07:51;7.60;99.90
10802;DHT22;5453;50.852;7.102;2022-12-07T13:10:35;7.60;99.90
10802;DHT22;5453;50.852;7.102;2022-12-07T13:13:32;7.60;99.90
10802;DHT22;5453;50.852;7.102;2022-12-07T13:16:36;7.50;99.90
10802;DHT22;5453;50.852;7.102;2022-12-07T13:22:51;7.20;99.90
10802;DHT22;5453;50.852;7.102;2022-12-07T13:25:31;7.20;99.90
10802;DHT22;5453;50.852;7.102;2022-12-07T13:28:14;7.10;99.90
10802;DHT22;5453;50.852;7.102;2022-12-07T13:31:04;7.20;99.90
10802;DHT22;5453;50.852;7.102;2022-12-07T13:33:44;7.10;99.90
10802;DHT22;5453;50.852;7.102;2022-12-07T13:36:21;7.10;99.90
10802;DHT22;5453;50.852;7.102;2022-12-07T13:38:56;7.00;99.90
10802;DHT22;5453;50.852;7.102;2022-12-07T13:41:29;7.00;99.90
10802;DHT22;5453;50.852;7.102;2022-12-07T13:44:05;7.00;99.90
10802;DHT22;5453;50.852;7.102;2022-12-07T13:46:49;6.90;99.90
10802;DHT22;5453;50.852;7.102;2022-12-07T13:49:29;6.90;99.90
10802;DHT22;5453;50.852;7.102;2022-12-07T13:52:08;7.00;99.90
10802;DHT22;5453;50.852;7.102;2022-12-07T13:54:47;7.10;99.90
10802;DHT22;5453;50.852;7.102;2022-12-07T13:57:21;7.00;99.90
10802;DHT22;5453;50.852;7.102;2022-12-07T13:59:53;7.00;99.90
10802;DHT22;5453;50.852;7.102;2022-12-07T14:02:28;7.00;99.90
10802;DHT22;5453;50.852;7.102;2022-12-07T14:05:09;7.00;99.90
10802;DHT22;5453;50.852;7.102;2022-12-07T14:07:54;7.00;99.90
10802;DHT22;5453;50.852;7.102;2022-12-07T14:10:29;7.00;99.90
10802;DHT22;5453;50.852;7.102;2022-12-07T14:13:24;7.00;99.90
10802;DHT22;5453;50.852;7.102;2022-12-07T14:16:01;7.00;99.90
10802;DHT22;5453;50.852;7.102;2022-12-07T14:18:39;7.00;99.90
10802;DHT22;5453;50.852;7.102;2022-12-07T14:21:16;7.00;99.90
10802;DHT22;5453;50.852;7.102;2022-12-07T14:24:11;7.00;99.90
10802;DHT22;5453;50.852;7.102;2022-12-07T14:26:47;7.00;99.90
10802;DHT22;5453;50.852;7.102;2022-12-07T14:29:31;7.00;99.90
10802;DHT22;5453;50.852;7.102;2022-12-07T14:32:20;7.00;99.90
10802;DHT22;5453;50.852;7.102;2022-12-07T14:35:01;7.00;99.90
10802;DHT22;5453;50.852;7.102;2022-12-07T14:37:35;7.00;99.90
10802;DHT22;5453;50.852;7.102;2022-12-07T14:40:13;7.00;99.90
10802;DHT22;5453;50.852;7.102;2022-12-07T14:42:47;6.90;99.90
10802;DHT22;5453;50.852;7.102;2022-12-07T14:45:22;6.90;99.90
10802;DHT22;5453;50.852;7.102;2022-12-07T14:47:54;6.90;99.90
10802;DHT22;5453;50.852;7.102;2022-12-07T14:50:28;6.90;99.90
10802;DHT22;5453;50.852;7.102;2022-12-07T14:53:05;7.30;99.90
10802;DHT22;5453;50.852;7.102;2022-12-07T14:55:41;8.90;99.90
10802;DHT22;5453;50.852;7.102;2022-12-07T14:58:15;9.40;99.90
10802;DHT22;5453;50.852;7.102;2022-12-07T15:00:48;9.30;99.90
10802;DHT22;5453;50.852;7.102;2022-12-07T15:03:20;9.00;99.90
10802;DHT22;5453;50.852;7.102;2022-12-07T15:05:56;8.70;99.90
10802;DHT22;5453;50.852;7.102;2022-12-07T15:08:29;8.40;99.90
10802;DHT22;5453;50.852;7.102;2022-12-07T15:11:01;8.10;99.90
10802;DHT22;5453;50.852;7.102;2022-12-07T15:13:36;7.90;99.90
10802;DHT22;5453;50.852;7.102;2022-12-07T15:16:25;7.70;99.90
10802;DHT22;5453;50.852;7.102;2022-12-07T15:18:58;7.60;99.90
10802;DHT22;5453;50.852;7.102;2022-12-07T15:21:31;7.50;99.90
10802;DHT22;5453;50.852;7.102;2022-12-07T15:24:03;7.40;99.90
10802;DHT22;5453;50.852;7.102;2022-12-07T15:26:37;7.30;99.90
10802;DHT22;5453;50.852;7.102;2022-12-07T15:29:10;7.30;99.90
10802;DHT22;5453;50.852;7.102;2022-12-07T15:31:42;7.20;99.90
10802;DHT22;5453;50.852;7.102;2022-12-07T15:34:16;7.20;99.90
10802;DHT22;5453;50.852;7.102;2022-12-07T15:36:49;7.10;99.90
10802;DHT22;5453;50.852;7.102;2022-12-07T15:39:22;7.10;99.90
10802;DHT22;5453;50.852;7.102;2022-12-07T15:41:54;7.00;99.90
10802;DHT22;5453;50.852;7.102;2022-12-07T15:44:26;6.90;99.90
10802;DHT22;5453;50.852;7.102;2022-12-07T15:47:15;6.90;99.90
10802;DHT22;5453;50.852;7.102;2022-12-07T15:49:47;6.80;99.90
10802;DHT22;5453;50.852;7.102;2022-12-07T15:52:21;6.80;99.90
10802;DHT22;5453;50.852;7.102;2022-12-07T15:54:53;6.70;99.90
10802;DHT22;5453;50.852;7.102;2022-12-07T15:57:25;6.70;99.90
10802;DHT22;5453;50.852;7.102;2022-12-07T15:59:58;6.70;99.90
10802;DHT22;5453;50.852;7.102;2022-12-07T16:02:31;6.70;99.90
10802;DHT22;5453;50.852;7.102;2022-12-07T16:05:03;6.70;99.90
10802;DHT22;5453;50.852;7.102;2022-12-07T16:07:37;6.70;99.90
10802;DHT22;5453;50.852;7.102;2022-12-07T16:10:10;6.70;99.90
10802;DHT22;5453;50.852;7.102;2022-12-07T16:12:43;6.70;99.90
10802;DHT22;5453;50.852;7.102;2022-12-07T16:15:15;6.60;99.90
10802;DHT22;5453;50.852;7.102;2022-12-07T16:17:47;6.60;99.90
10802;DHT22;5453;50.852;7.102;2022-12-07T16:20:19;6.60;99.90
10802;DHT22;5453;50.852;7.102;2022-12-07T16:22:53;6.60;99.90
10802;DHT22;5453;50.852;7.102;2022-12-07T16:25:25;6.50;99.90
10802;DHT22;5453;50.852;7.102;2022-12-07T16:27:58;6.50;99.90
10802;DHT22;5453;50.852;7.102;2022-12-07T16:30:30;6.50;99.90
10802;DHT22;5453;50.852;7.102;2022-12-07T16:33:03;6.50;99.90
10802;DHT22;5453;50.852;7.102;2022-12-07T16:35:38;6.50;99.90
10802;DHT22;5453;50.852;7.102;2022-12-07T16:38:12;6.50;99.90
10802;DHT22;5453;50.852;7.102;2022-12-07T16:40:44;6.50;99.90
10802;DHT22;5453;50.852;7.102;2022-12-07T16:43:18;6.50;99.90
10802;DHT22;5453;50.852;7.102;2022-12-07T16:45:50;6.40;99.90
10802;DHT22;5453;50.852;7.102;2022-12-07T16:48:23;6.40;99.90
10802;DHT22;5453;50.852;7.102;2022-12-07T16:50:55;6.40;99.90
10802;DHT22;5453;50.852;7.102;2022-12-07T16:53:29;6.40;99.90
10802;DHT22;5453;50.852;7.102;2022-12-07T16:56:01;6.40;99.90
10802;DHT22;5453;50.852;7.102;2022-12-07T16:58:33;6.40;99.90
10802;DHT22;5453;50.852;7.102;2022-12-07T17:01:10;6.40;99.90
10802;DHT22;5453;50.852;7.102;2022-12-07T17:03:43;6.40;99.90
10802;DHT22;5453;50.852;7.102;2022-12-07T17:06:17;6.40;99.90
10802;DHT22;5453;50.852;7.102;2022-12-07T17:08:52;6.30;99.90